createdAt,value
2022-10-29T00:01:17.741Z,0.60
2022-10-29T00:04:04.607Z,0.53
2022-10-29T00:06:51.425Z,0.40
2022-10-29T00:09:38.247Z,0.50
2022-10-29T00:12:25.117Z,0.60
2022-10-29T00:15:11.812Z,0.60
2022-10-29T00:17:58.829Z,0.70
2022-10-29T00:20:45.660Z,0.73
2022-10-29T00:23:32.374Z,0.73
2022-10-29T00:26:19.876Z,0.70
2022-10-29T00:29:06.942Z,0.60
2022-10-29T00:31:53.874Z,0.70
2022-10-29T00:34:40.624Z,0.60
2022-10-29T00:37:27.341Z,0.60
2022-10-29T00:40:14.051Z,0.73
2022-10-29T00:43:00.767Z,0.60
2022-10-29T00:45:47.466Z,0.60
2022-10-29T00:48:34.199Z,0.70
2022-10-29T00:51:25.866Z,0.70
2022-10-29T00:54:16.610Z,0.60
2022-10-29T00:57:10.622Z,0.83
2022-10-29T00:59:57.564Z,0.60
2022-10-29T01:02:44.553Z,0.80
2022-10-29T01:05:34.742Z,0.60
2022-10-29T01:08:22.080Z,0.70
2022-10-29T01:11:46.261Z,0.67
2022-10-29T01:15:10.152Z,0.70
2022-10-29T01:18:26.477Z,0.90
2022-10-29T01:21:29.823Z,0.70
2022-10-29T01:24:47.286Z,0.70
2022-10-29T01:27:52.844Z,0.70
2022-10-29T01:31:07.071Z,0.80
2022-10-29T01:34:11.880Z,0.80
2022-10-29T01:37:01.472Z,0.80
2022-10-29T01:40:10.970Z,0.70
2022-10-29T01:43:00.418Z,0.80
2022-10-29T01:45:53.944Z,0.70
2022-10-29T01:48:47.916Z,0.80
2022-10-29T01:51:42.742Z,0.90
2022-10-29T01:54:31.402Z,0.77
2022-10-29T01:57:19.167Z,0.60
2022-10-29T02:00:05.992Z,0.70
2022-10-29T02:03:18.546Z,0.60
2022-10-29T02:06:08.333Z,0.90
2022-10-29T02:09:33.203Z,0.90
2022-10-29T02:12:37.527Z,0.70
2022-10-29T02:15:32.464Z,0.70
2022-10-29T02:18:25.474Z,0.80
2022-10-29T02:21:12.255Z,0.80
2022-10-29T02:23:59.107Z,0.80
2022-10-29T02:26:45.811Z,0.80
2022-10-29T02:29:32.512Z,0.80
2022-10-29T02:32:19.344Z,0.80
2022-10-29T02:35:06.038Z,0.80
2022-10-29T02:37:52.802Z,0.93
2022-10-29T02:40:39.514Z,1.60
2022-10-29T02:43:26.295Z,1.23
2022-10-29T02:46:39.939Z,1.20
2022-10-29T02:49:27.543Z,1.30
2022-10-29T02:52:14.267Z,1.87
2022-10-29T02:55:01.047Z,1.50
2022-10-29T02:57:47.744Z,1.70
2022-10-29T03:00:35.102Z,1.53
2022-10-29T03:03:21.886Z,2.10
2022-10-29T03:06:08.956Z,1.87
2022-10-29T03:08:55.776Z,1.70
2022-10-29T03:11:42.559Z,1.90
2022-10-29T03:14:29.311Z,1.87
2022-10-29T03:17:16.068Z,1.83
2022-10-29T03:20:02.801Z,1.60
2022-10-29T03:22:49.551Z,1.90
2022-10-29T03:25:36.367Z,1.83
2022-10-29T03:28:24.993Z,1.80
2022-10-29T03:31:11.752Z,2.00
2022-10-29T03:33:58.454Z,2.03
2022-10-29T03:36:45.191Z,2.10
2022-10-29T03:39:31.982Z,2.10
2022-10-29T03:42:18.673Z,2.20
2022-10-29T03:45:05.374Z,2.23
2022-10-29T03:47:53.614Z,2.40
2022-10-29T03:50:40.487Z,2.23
2022-10-29T03:53:28.436Z,2.40
2022-10-29T03:56:16.722Z,2.87
2022-10-29T03:59:03.588Z,2.40
2022-10-29T04:01:50.376Z,2.60
2022-10-29T04:04:37.282Z,2.13
2022-10-29T04:07:24.021Z,2.60
2022-10-29T04:10:10.714Z,2.20
2022-10-29T04:12:57.904Z,2.67
2022-10-29T04:15:44.842Z,2.17
2022-10-29T04:18:32.460Z,1.77
2022-10-29T04:28:41.911Z,1.77
2022-10-29T04:30:42.563Z,1.70
2022-10-29T04:33:29.273Z,1.80
2022-10-29T04:36:16.059Z,1.50
2022-10-29T04:39:02.766Z,1.77
2022-10-29T04:41:49.499Z,1.57
2022-10-29T04:44:36.231Z,1.73
2022-10-29T04:47:23.072Z,1.67
2022-10-29T04:50:09.773Z,1.80
2022-10-29T04:52:56.485Z,1.80
2022-10-29T04:55:43.175Z,1.67
2022-10-29T04:58:36.034Z,1.30
2022-10-29T05:01:23.830Z,1.50
2022-10-29T05:04:10.711Z,1.40
2022-10-29T05:06:57.439Z,1.57
2022-10-29T05:09:44.292Z,1.37
2022-10-29T05:12:30.989Z,1.40
2022-10-29T05:15:17.719Z,1.40
2022-10-29T05:18:04.478Z,1.37
2022-10-29T05:20:51.491Z,1.57
2022-10-29T05:23:38.210Z,1.40
2022-10-29T05:26:25.001Z,1.27
2022-10-29T05:29:11.830Z,0.93
2022-10-29T05:31:58.526Z,1.50
2022-10-29T05:34:45.244Z,1.10
2022-10-29T05:37:31.934Z,1.30
2022-10-29T05:40:18.632Z,1.23
2022-10-29T05:43:05.386Z,1.17
2022-10-29T05:45:52.299Z,1.20
2022-10-29T05:48:39.117Z,1.10
2022-10-29T05:51:25.814Z,1.10
2022-10-29T05:54:12.550Z,1.07
2022-10-29T05:56:39.286Z,1.10
2022-10-29T05:59:06.117Z,1.17
2022-10-29T06:01:32.930Z,1.27
2022-10-29T06:04:01.334Z,1.30
2022-10-29T06:06:28.223Z,1.10
2022-10-29T06:08:55.018Z,1.13
2022-10-29T06:11:21.750Z,1.20
2022-10-29T06:13:48.489Z,0.83
2022-10-29T06:16:15.254Z,1.10
2022-10-29T06:18:42.002Z,1.00
2022-10-29T06:21:08.843Z,0.90
2022-10-29T06:23:35.575Z,1.00
2022-10-29T06:26:03.461Z,0.97
2022-10-29T06:28:34.637Z,0.90
2022-10-29T06:31:01.825Z,1.00
2022-10-29T06:33:48.544Z,0.80
2022-10-29T06:36:35.245Z,1.00
2022-10-29T06:39:21.946Z,0.90
2022-10-29T06:42:08.627Z,0.80
2022-10-29T06:44:55.331Z,0.90
2022-10-29T06:47:42.006Z,0.90
2022-10-29T06:50:29.794Z,0.73
2022-10-29T06:53:21.841Z,0.90
2022-10-29T06:56:08.547Z,0.90
2022-10-29T06:58:55.249Z,0.70
2022-10-29T07:01:42.020Z,0.87
2022-10-29T07:04:28.744Z,0.87
2022-10-29T07:07:15.479Z,1.00
2022-10-29T07:10:02.239Z,0.97
2022-10-29T07:12:48.975Z,1.10
2022-10-29T07:15:35.888Z,1.30
2022-10-29T07:18:25.052Z,1.10
2022-10-29T07:21:11.736Z,0.93
2022-10-29T07:23:58.435Z,1.30
2022-10-29T07:26:45.335Z,1.20
2022-10-29T07:29:32.060Z,1.10
2022-10-29T07:32:18.757Z,1.20
2022-10-29T07:35:05.448Z,1.33
2022-10-29T07:37:52.168Z,1.10
2022-10-29T07:40:38.922Z,1.00
2022-10-29T07:43:25.926Z,1.10
2022-10-29T07:46:12.667Z,1.10
2022-10-29T07:48:59.375Z,1.00
2022-10-29T07:51:46.114Z,1.13
2022-10-29T07:54:32.812Z,0.97
2022-10-29T07:57:19.515Z,1.10
2022-10-29T08:00:06.291Z,1.10
2022-10-29T08:02:59.401Z,1.47
2022-10-29T08:05:48.905Z,1.30
2022-10-29T08:08:37.636Z,1.50
2022-10-29T08:11:25.236Z,1.30
2022-10-29T08:14:11.998Z,1.93
2022-10-29T08:16:58.709Z,1.30
2022-10-29T08:19:45.450Z,1.50
2022-10-29T08:22:32.464Z,1.50
2022-10-29T08:25:19.252Z,1.30
2022-10-29T08:28:06.023Z,1.40
2022-10-29T08:30:52.830Z,1.53
2022-10-29T08:33:39.627Z,1.60
2022-10-29T08:36:26.535Z,1.47
2022-10-29T08:39:13.259Z,1.43
2022-10-29T08:42:24.646Z,1.30
2022-10-29T08:45:11.319Z,1.30
2022-10-29T08:48:41.836Z,1.40
2022-10-29T08:51:38.492Z,1.50
2022-10-29T08:54:30.734Z,1.20
2022-10-29T08:57:22.211Z,1.20
2022-10-29T09:00:22.254Z,1.10
2022-10-29T09:03:15.554Z,0.93
2022-10-29T09:06:31.370Z,1.30
2022-10-29T09:09:25.518Z,1.00
2022-10-29T09:12:26.082Z,1.13
2022-10-29T09:15:23.408Z,0.90
2022-10-29T09:18:48.751Z,0.97
2022-10-29T09:21:58.255Z,0.90
2022-10-29T09:25:10.070Z,1.13
2022-10-29T09:28:11.010Z,0.93
2022-10-29T09:31:11.307Z,1.03
2022-10-29T09:34:01.806Z,0.80
2022-10-29T09:36:50.802Z,0.80
2022-10-29T09:39:49.486Z,0.80
2022-10-29T09:42:56.876Z,0.70
2022-10-29T09:45:54.691Z,0.80
2022-10-29T09:48:50.047Z,0.73
2022-10-29T09:51:50.067Z,0.90
2022-10-29T09:54:37.204Z,0.83
2022-10-29T09:57:25.482Z,0.80
2022-10-29T10:00:46.109Z,0.80
2022-10-29T10:03:35.506Z,0.50
2022-10-29T10:06:27.938Z,0.40
2022-10-29T10:09:24.844Z,0.50
2022-10-29T10:12:14.180Z,0.40
2022-10-29T10:15:00.895Z,0.30
2022-10-29T10:17:47.680Z,0.30
2022-10-29T10:20:46.092Z,0.20
2022-10-29T10:23:44.882Z,0.10
2022-10-29T10:26:57.813Z,0.20
2022-10-29T10:29:45.891Z,0.10
2022-10-29T10:32:36.993Z,0.30
2022-10-29T10:35:41.771Z,0.10
2022-10-29T10:38:29.911Z,0.10
2022-10-29T10:41:21.288Z,0.10
2022-10-29T10:44:08.563Z,0.00
2022-10-29T10:46:59.634Z,0.00
2022-10-29T10:49:51.475Z,0.07
2022-10-29T10:52:46.544Z,0.10
2022-10-29T10:55:48.157Z,0.10
2022-10-29T10:58:40.662Z,0.10
2022-10-29T11:01:33.329Z,0.10
2022-10-29T11:04:53.280Z,0.10
2022-10-29T11:07:41.755Z,0.10
2022-10-29T11:10:32.232Z,0.10
2022-10-29T11:13:22.959Z,0.00
2022-10-29T11:16:27.062Z,0.07
2022-10-29T11:19:25.624Z,0.10
2022-10-29T11:22:29.499Z,0.10
2022-10-29T11:25:43.674Z,0.10
2022-10-29T11:28:52.032Z,0.00
2022-10-29T11:32:02.960Z,0.10
2022-10-29T11:34:58.330Z,0.10
2022-10-29T11:38:04.338Z,0.03
2022-10-29T11:41:05.917Z,0.00
2022-10-29T11:43:53.544Z,0.47
2022-10-29T11:46:40.210Z,0.10
2022-10-29T11:49:45.117Z,0.10
2022-10-29T11:52:42.467Z,0.00
2022-10-29T11:56:06.562Z,0.10
2022-10-29T11:58:56.265Z,0.20
2022-10-29T12:02:03.308Z,0.30
2022-10-29T12:04:57.923Z,0.30
2022-10-29T12:08:16.405Z,0.10
2022-10-29T12:11:21.373Z,0.00
2022-10-29T12:14:17.647Z,0.10
2022-10-29T12:17:10.370Z,0.00
2022-10-29T12:20:27.618Z,0.10
2022-10-29T12:23:31.486Z,0.00
2022-10-29T12:26:36.842Z,0.00
2022-10-29T12:29:35.911Z,0.00
2022-10-29T12:32:57.989Z,0.00
2022-10-29T12:35:52.460Z,0.00
2022-10-29T12:39:00.674Z,0.00
2022-10-29T12:41:56.481Z,0.00
2022-10-29T12:44:50.883Z,0.00
2022-10-29T12:47:49.126Z,0.10
2022-10-29T12:50:53.731Z,0.00
2022-10-29T12:53:46.445Z,0.00
2022-10-29T12:56:35.241Z,0.00
2022-10-29T12:59:50.975Z,0.00
2022-10-29T13:02:56.542Z,0.00
2022-10-29T13:05:55.473Z,0.00
2022-10-29T13:08:54.419Z,0.00
2022-10-29T13:11:44.751Z,0.00
2022-10-29T13:14:36.590Z,0.00
2022-10-29T13:17:27.077Z,0.10
2022-10-29T13:20:21.453Z,0.00
2022-10-29T13:23:10.962Z,0.10
2022-10-29T13:25:57.623Z,0.07
2022-10-29T13:28:44.298Z,0.00
2022-10-29T13:31:33.948Z,0.10
2022-10-29T13:34:20.691Z,0.10
2022-10-29T13:37:07.379Z,0.10
2022-10-29T13:39:54.071Z,0.27
2022-10-29T13:42:40.855Z,0.20
2022-10-29T13:45:33.634Z,0.10
2022-10-29T13:48:36.981Z,0.23
2022-10-29T13:51:28.132Z,0.20
2022-10-29T13:57:58.821Z,0.10
2022-10-29T14:00:47.486Z,0.43
2022-10-29T14:04:12.381Z,0.10
2022-10-29T14:07:00.025Z,0.30
2022-10-29T14:10:06.433Z,0.20
2022-10-29T14:12:53.400Z,0.30
2022-10-29T14:15:40.236Z,0.30
2022-10-29T14:18:45.190Z,0.30
2022-10-29T14:21:56.926Z,0.20
2022-10-29T14:24:43.738Z,0.40
2022-10-29T14:27:36.483Z,0.20
2022-10-29T14:30:34.199Z,0.20
2022-10-29T14:33:20.962Z,0.20
2022-10-29T14:36:07.845Z,0.30
2022-10-29T14:39:06.188Z,0.20
2022-10-29T14:41:53.038Z,0.20
2022-10-29T14:44:45.620Z,0.10
2022-10-29T14:47:44.302Z,0.20
2022-10-29T14:50:43.303Z,0.10
2022-10-29T14:53:41.498Z,0.10
2022-10-29T14:56:31.465Z,0.10
2022-10-29T14:59:19.164Z,0.20
2022-10-29T15:02:36.111Z,0.10
2022-10-29T15:05:19.958Z,0.00
2022-10-29T15:08:06.721Z,0.17
2022-10-29T15:11:10.986Z,0.30
2022-10-29T15:13:57.793Z,0.10
2022-10-29T15:16:44.734Z,0.10
2022-10-29T15:19:36.026Z,0.10
2022-10-29T15:22:29.045Z,0.10
2022-10-29T15:25:16.248Z,0.20
2022-10-29T15:28:03.131Z,0.20
2022-10-29T15:30:53.724Z,0.10
2022-10-29T15:33:49.339Z,0.10
2022-10-29T15:36:36.056Z,0.30
2022-10-29T15:39:37.700Z,0.53
2022-10-29T15:42:40.784Z,0.23
2022-10-29T15:45:27.443Z,0.10
2022-10-29T15:48:18.086Z,0.20
2022-10-29T15:51:05.978Z,0.20
2022-10-29T15:53:52.695Z,0.10
2022-10-29T15:56:42.119Z,0.00
2022-10-29T15:59:34.321Z,0.10
2022-10-29T16:02:21.166Z,0.20
2022-10-29T16:05:08.144Z,0.10
2022-10-29T16:07:54.872Z,0.10
2022-10-29T16:10:21.956Z,0.20
2022-10-29T16:13:09.798Z,0.00
2022-10-29T16:15:56.511Z,0.10
2022-10-29T16:18:43.410Z,0.07
2022-10-29T16:21:37.150Z,0.10
2022-10-29T16:24:24.440Z,0.10
2022-10-29T16:27:11.134Z,0.10
2022-10-29T16:29:57.833Z,0.00
2022-10-29T16:32:44.864Z,0.00
2022-10-29T16:35:46.482Z,0.00
2022-10-29T16:38:33.170Z,0.20
2022-10-29T16:41:19.966Z,0.00
2022-10-29T16:44:07.678Z,0.00
2022-10-29T16:46:54.417Z,0.10
2022-10-29T16:49:41.200Z,0.00
2022-10-29T16:52:32.746Z,0.10
2022-10-29T16:55:19.742Z,0.13
2022-10-29T16:58:06.550Z,0.00
2022-10-29T17:00:53.333Z,0.00
2022-10-29T17:03:40.255Z,0.10
2022-10-29T17:06:29.401Z,0.10
2022-10-29T17:09:16.113Z,0.00
2022-10-29T17:12:02.835Z,0.00
2022-10-29T17:14:49.559Z,0.00
2022-10-29T17:17:36.252Z,0.00
2022-10-29T17:20:23.125Z,0.00
2022-10-29T17:23:09.919Z,0.10
2022-10-29T17:25:56.617Z,0.60
2022-10-29T17:28:45.094Z,0.17
2022-10-29T17:31:31.853Z,0.10
2022-10-29T17:34:18.552Z,0.00
2022-10-29T17:37:05.255Z,0.10
2022-10-29T17:39:52.204Z,0.10
2022-10-29T17:42:38.990Z,0.00
2022-10-29T17:45:26.292Z,0.00
2022-10-29T17:48:19.725Z,0.00
2022-10-29T17:51:15.126Z,0.10
2022-10-29T17:54:01.822Z,0.00
2022-10-29T17:56:50.535Z,0.00
2022-10-29T17:59:37.255Z,0.00
2022-10-29T18:02:24.145Z,0.20
2022-10-29T18:05:10.931Z,0.10
2022-10-29T18:07:57.969Z,0.10
2022-10-29T18:10:44.841Z,0.10
2022-10-29T18:13:31.559Z,0.00
2022-10-29T18:16:20.417Z,0.00
2022-10-29T18:19:08.853Z,0.10
2022-10-29T18:21:55.602Z,0.00
2022-10-29T18:24:42.348Z,0.10
2022-10-29T18:27:29.154Z,0.10
2022-10-29T18:30:15.857Z,0.10
2022-10-29T18:33:02.724Z,0.10
2022-10-29T18:35:49.527Z,0.10
2022-10-29T18:38:36.261Z,0.10
2022-10-29T18:41:23.104Z,0.10
2022-10-29T18:44:10.618Z,0.10
2022-10-29T18:46:57.351Z,0.10
2022-10-29T18:49:44.151Z,0.17
2022-10-29T18:52:30.895Z,0.00
2022-10-29T18:55:17.614Z,0.10
2022-10-29T18:58:04.343Z,0.20
2022-10-29T19:00:51.157Z,0.10
2022-10-29T19:03:38.196Z,0.20
2022-10-29T19:06:27.798Z,0.10
2022-10-29T19:09:15.548Z,0.10
2022-10-29T19:12:02.313Z,0.10
2022-10-29T19:14:49.117Z,0.10
2022-10-29T19:17:35.823Z,0.23
2022-10-29T19:20:22.522Z,0.10
2022-10-29T19:23:09.281Z,0.20
2022-10-29T19:25:59.991Z,0.00
2022-10-29T19:28:49.407Z,0.10
2022-10-29T19:31:38.722Z,0.10
2022-10-29T19:34:27.328Z,0.10
2022-10-29T19:37:14.094Z,0.00
2022-10-29T19:40:02.255Z,0.03
2022-10-29T19:42:49.041Z,0.00
2022-10-29T19:45:35.832Z,0.10
2022-10-29T19:48:22.594Z,0.10
2022-10-29T19:51:13.904Z,0.10
2022-10-29T19:54:00.602Z,0.10
2022-10-29T19:56:47.317Z,0.10
2022-10-29T19:59:34.008Z,0.00
2022-10-29T20:02:20.774Z,0.20
2022-10-29T20:05:07.542Z,0.33
2022-10-29T20:07:54.640Z,0.03
2022-10-29T20:10:41.493Z,0.10
2022-10-29T20:13:28.203Z,0.00
2022-10-29T20:16:15.266Z,0.10
2022-10-29T20:19:02.086Z,0.20
2022-10-29T20:21:48.839Z,0.20
2022-10-29T20:24:35.547Z,0.10
2022-10-29T20:27:22.297Z,0.10
2022-10-29T20:30:09.085Z,0.00
2022-10-29T20:32:56.005Z,0.10
2022-10-29T20:35:43.018Z,0.10
2022-10-29T20:38:29.778Z,0.00
2022-10-29T20:41:16.494Z,0.00
2022-10-29T20:44:04.491Z,0.43
2022-10-29T20:46:51.195Z,0.00
2022-10-29T20:49:37.921Z,0.00
2022-10-29T20:52:24.795Z,0.00
2022-10-29T20:55:12.704Z,0.53
2022-10-29T20:57:59.862Z,0.10
2022-10-29T21:00:47.151Z,0.10
2022-10-29T21:03:35.423Z,0.10
2022-10-29T21:06:27.119Z,0.10
2022-10-29T21:09:13.848Z,0.10
2022-10-29T21:12:01.163Z,0.10
2022-10-29T21:14:47.889Z,0.03
2022-10-29T21:17:34.859Z,0.20
2022-10-29T21:20:21.585Z,0.10
2022-10-29T21:23:08.393Z,0.23
2022-10-29T21:25:55.168Z,0.07
2022-10-29T21:28:41.847Z,0.10
2022-10-29T21:31:28.886Z,0.10
2022-10-29T21:34:15.935Z,0.00
2022-10-29T21:37:02.657Z,0.20
2022-10-29T21:39:49.455Z,0.00
2022-10-29T21:42:36.174Z,0.10
2022-10-29T21:45:23.295Z,0.10
2022-10-29T21:48:10.003Z,0.00
2022-10-29T21:50:56.735Z,0.03
2022-10-29T21:53:43.601Z,0.10
2022-10-29T21:56:32.794Z,0.00
2022-10-29T21:59:19.647Z,0.10
2022-10-29T22:02:06.451Z,0.10
2022-10-29T22:04:53.245Z,0.10
2022-10-29T22:07:39.933Z,0.20
2022-10-29T22:10:27.459Z,0.10
2022-10-29T22:13:14.598Z,0.10
2022-10-29T22:16:04.843Z,0.10
2022-10-29T22:18:52.562Z,0.20
2022-10-29T22:21:41.674Z,0.20
2022-10-29T22:24:29.291Z,0.20
2022-10-29T22:27:16.009Z,0.20
2022-10-29T22:30:02.730Z,0.10
2022-10-29T22:32:37.913Z,0.13
2022-10-29T22:35:06.055Z,0.10
2022-10-29T22:37:52.785Z,0.00
2022-10-29T22:40:39.541Z,0.10
2022-10-29T22:43:26.282Z,0.00
2022-10-29T22:46:13.003Z,0.07
2022-10-29T22:49:00.018Z,0.10
2022-10-29T22:51:29.464Z,0.10
2022-10-29T22:53:57.191Z,0.10
2022-10-29T22:56:49.546Z,0.20
2022-10-29T22:59:36.256Z,0.03
2022-10-29T23:02:23.166Z,0.00
2022-10-29T23:05:09.960Z,0.10
2022-10-29T23:07:56.862Z,0.10
2022-10-29T23:10:43.758Z,0.03
2022-10-29T23:13:30.500Z,0.20
2022-10-29T23:16:17.214Z,0.00
2022-10-29T23:19:08.183Z,0.10
2022-10-29T23:21:51.667Z,0.10
2022-10-29T23:24:18.452Z,0.20
2022-10-29T23:26:45.203Z,0.13
2022-10-29T23:29:11.939Z,0.20
2022-10-29T23:31:38.709Z,0.20
2022-10-29T23:34:06.338Z,0.20
2022-10-29T23:36:33.802Z,0.20
2022-10-29T23:39:01.404Z,0.00
2022-10-29T23:41:29.672Z,0.13
2022-10-29T23:43:57.141Z,0.10
2022-10-29T23:46:24.016Z,0.10
2022-10-29T23:48:50.926Z,0.20
2022-10-29T23:51:18.071Z,0.10
2022-10-29T23:53:44.801Z,0.13
2022-10-29T23:56:11.679Z,0.20
2022-10-29T23:58:38.473Z,0.10
